Mindoro Star — V7RE6 — position and weather

sailwx.info

Track history (hours):
 
Tides and Currents Weather Stations Pressure Air Temp Water Temp Dewpoint Dewpoint Depression Visibility Wind Speed Wind Dir Waves Ship Positions

Mindoro Star

Last reported at 2019-Mar-21 03:07 UTC. Time now 2019-Mar-22 07:57 UTC.
Position N 22°23' E 113°46'.

Length 238 m; draft 13 m.

Type: Tanker. MMSI: 538003490.

Date/timePositionNaut miles runAvg speedWind from/ knotsBaromVisibWave heightAir tempDewpointWater temp
2019-Mar-21 03:07N 22°23' E 113°46'313.3
2019-Mar-21 02:56N 22°21' E 113°47'17 9.6
2019-Mar-21 01:12N 22°05' E 113°52'0 1.5
2019-Mar-21 00:58N 22°05' E 113°52'0 0.0
2019-Mar-20 20:43N 22°05' E 113°52'0 0.0
2019-Mar-20 15:46N 22°05' E 113°52'  
2019-Mar-15 07:27N 01°16' E 104°14'510.6
2019-Mar-15 07:00N 01°15' E 104°09'510.8
2019-Mar-15 06:30N 01°15' E 104°04'611.2
2019-Mar-15 06:00N 01°14' E 103°58'611.4
2019-Mar-15 05:30N 01°12' E 103°53'612.3
2019-Mar-15 05:01N 01°09' E 103°47'612.8
2019-Mar-15 04:30N 01°05' E 103°43'610.9
2019-Mar-15 04:00N 01°04' E 103°37'510.9
2019-Mar-15 03:30N 01°07' E 103°33'5 9.6
2019-Mar-15 03:00N 01°11' E 103°36'5 9.5
2019-Mar-15 02:30N 01°12' E 103°40'2 3.7
2019-Mar-15 02:00N 01°13' E 103°42'1 2.3
2019-Mar-15 01:28N 01°14' E 103°41'0 0.1
2019-Mar-15 00:58N 01°14' E 103°41'0 0.0
2019-Mar-15 00:28N 01°14' E 103°41'0 0.0
2019-Mar-14 23:58N 01°14' E 103°41'0 0.0
2019-Mar-14 19:19N 01°14' E 103°41'0 0.0
2019-Mar-14 17:13N 01°14' E 103°41'0 0.0
2019-Mar-14 16:43N 01°14' E 103°41'0 0.0
2019-Mar-14 16:25N 01°14' E 103°41'0 0.0
2019-Mar-14 15:55N 01°14' E 103°41'0 0.0
2019-Mar-14 15:01N 01°14' E 103°41'0 0.0
2019-Mar-14 14:43N 01°14' E 103°41'0 0.0
2019-Mar-14 13:58N 01°14' E 103°41'0 0.0
2019-Mar-14 11:37N 01°14' E 103°41'0 0.0
2019-Mar-14 10:43N 01°14' E 103°41'0 0.0
2019-Mar-14 10:25N 01°14' E 103°41'0 0.0
2019-Mar-14 09:49N 01°14' E 103°41'0 0.0
2019-Mar-14 09:13N 01°14' E 103°41'0 0.0
2019-Mar-14 08:46N 01°14' E 103°41'0 0.0
2019-Mar-14 07:49N 01°14' E 103°41'0 0.0
2019-Mar-14 07:25N 01°14' E 103°41'0 0.0
2019-Mar-14 06:55N 01°14' E 103°41'0 0.0
2019-Mar-14 06:16N 01°14' E 103°41'0 0.0
2019-Mar-14 05:52N 01°14' E 103°41'0 0.0
2019-Mar-14 05:19N 01°14' E 103°41'0 0.0
2019-Mar-14 04:37N 01°14' E 103°41'0 0.0
2019-Mar-14 04:19N 01°14' E 103°41'0 0.0
2019-Mar-14 03:52N 01°14' E 103°41'0 0.0
2019-Mar-14 03:25N 01°14' E 103°41'0 0.0
2019-Mar-14 02:43N 01°14' E 103°41'0 0.0
2019-Mar-14 02:07N 01°14' E 103°41'0 0.0
2019-Mar-14 01:49N 01°14' E 103°41'0 0.0
2019-Mar-14 01:25N 01°14' E 103°41'0 0.0
2019-Mar-14 00:55N 01°14' E 103°41'0 0.0
2019-Mar-14 00:19N 01°14' E 103°41'0 0.0
2019-Mar-13 23:55N 01°14' E 103°41'0 0.0
2019-Mar-13 23:30N 01°14' E 103°41'0 0.2
2019-Mar-13 23:00N 01°14' E 103°42'2 4.3
2019-Mar-13 22:30N 01°15' E 103°43'3 6.8
2019-Mar-13 22:00N 01°15' E 103°47'1 1.7
2019-Mar-13 21:29N 01°14' E 103°47'0 0.0
2019-Mar-13 20:59N 01°14' E 103°47'0 0.1
2019-Mar-13 20:29N 01°14' E 103°47'0 0.0
2019-Mar-13 19:59N 01°14' E 103°47'0 0.0
2019-Mar-13 19:29N 01°14' E 103°47'0 0.0
2019-Mar-13 18:59N 01°14' E 103°47'0 0.0
2019-Mar-13 18:29N 01°14' E 103°47'0 0.0
2019-Mar-13 17:59N 01°14' E 103°47'0 0.1
2019-Mar-13 17:29N 01°14' E 103°47'0 0.0
2019-Mar-13 16:56N 01°14' E 103°47'0 0.0
2019-Mar-13 16:29N 01°14' E 103°47'0 0.1
2019-Mar-13 15:59N 01°14' E 103°47'0 0.0
2019-Mar-13 15:26N 01°14' E 103°47'0 0.0
2019-Mar-13 14:56N 01°14' E 103°47'0 0.1
2019-Mar-13 14:29N 01°14' E 103°47'0 0.0
2019-Mar-13 13:59N 01°14' E 103°47'0 0.1
2019-Mar-13 13:29N 01°14' E 103°47'0 0.0
2019-Mar-13 12:59N 01°14' E 103°47'0 0.0
2019-Mar-13 12:29N 01°14' E 103°47'0 0.1
2019-Mar-13 11:59N 01°14' E 103°47'0 0.1
2019-Mar-13 11:26N 01°14' E 103°47'0 0.2
2019-Mar-13 10:56N 01°14' E 103°47'0 0.0
2019-Mar-13 10:29N 01°14' E 103°47'0 0.0
2019-Mar-13 09:59N 01°14' E 103°47'0 0.0
2019-Mar-13 09:29N 01°14' E 103°47'0 0.0
2019-Mar-13 08:59N 01°14' E 103°47'0 0.0
2019-Mar-13 08:29N 01°14' E 103°47'0 0.0
2019-Mar-13 07:59N 01°14' E 103°47'0 0.0
2019-Mar-13 07:29N 01°14' E 103°47'0 0.0
2019-Mar-13 06:59N 01°14' E 103°47'0 0.0
2019-Mar-13 06:29N 01°14' E 103°47'0 0.1
2019-Mar-13 05:59N 01°14' E 103°47'0 0.1
2019-Mar-13 05:29N 01°14' E 103°47'1 2.9
2019-Mar-13 05:00N 01°13' E 103°48'1 1.8
2019-Mar-13 04:28N 01°12' E 103°48'0 0.0
2019-Mar-12 01:31N 01°12' E 103°48'0 0.0
2019-Mar-12 01:27N 01°12' E 103°48'0 0.0
2019-Mar-12 01:00N 01°12' E 103°48'0 0.2
2019-Mar-12 00:30N 01°12' E 103°48'1 2.0
2019-Mar-12 00:00N 01°11' E 103°49'2 4.5
2019-Mar-11 23:30N 01°13' E 103°48'4 7.9
2019-Mar-11 23:00N 01°15' E 103°44'3 5.7
2019-Mar-11 22:30N 01°13' E 103°42'0 0.2
2019-Mar-11 21:56N 01°13' E 103°42'0 0.2
2019-Mar-11 21:29N 01°13' E 103°42'0 0.2
2019-Mar-11 20:59N 01°13' E 103°42'0 0.0
2019-Mar-11 20:29N 01°13' E 103°42'0 0.2
2019-Mar-11 19:59N 01°13' E 103°42'0 0.2
2019-Mar-11 19:29N 01°13' E 103°42'0 0.1
2019-Mar-11 18:59N 01°13' E 103°41'0 0.0
2019-Mar-11 18:29N 01°13' E 103°41'0 0.0
2019-Mar-11 17:59N 01°13' E 103°41'0 0.1
2019-Mar-11 17:26N 01°13' E 103°41'0 0.0
2019-Mar-11 16:56N 01°13' E 103°41'0 0.0
2019-Mar-11 16:29N 01°13' E 103°41'0 0.1
2019-Mar-11 15:54N 01°13' E 103°41'1 2.4
2019-Mar-11 15:30N 01°13' E 103°41'2 4.8
2019-Mar-11 15:00N 01°12' E 103°38'3 5.2
2019-Mar-11 14:30N 01°13' E 103°36'3 5.4
2019-Mar-11 13:59N 01°12' E 103°33'4 7.8
2019-Mar-11 13:30N 01°11' E 103°30'5 9.1
2019-Mar-11 12:58N 01°12' E 103°25'510.1
2019-Mar-11 12:29N 01°15' E 103°21'  
Track history (hours):
 
Tides and Currents Weather Stations Pressure Air Temp Water Temp Dewpoint Dewpoint Depression Visibility Wind Speed Wind Dir Waves Ship Positions

Mindoro Star

Last reported at 2019-Mar-21 03:07 UTC. Time now 2019-Mar-22 07:57 UTC.
Position N 22°23' E 113°46'.

Length 238 m; draft 13 m.

Type: Tanker. MMSI: 538003490.

Date/timePositionNaut miles runAvg speedWind from/ knotsBaromVisibWave heightAir tempDewpointWater temp
2019-Mar-21 03:07N 22°23' E 113°46'313.3
2019-Mar-21 02:56N 22°21' E 113°47'17 9.6
2019-Mar-21 01:12N 22°05' E 113°52'0 1.5
2019-Mar-21 00:58N 22°05' E 113°52'0 0.0
2019-Mar-20 20:43N 22°05' E 113°52'0 0.0
2019-Mar-20 15:46N 22°05' E 113°52'  
2019-Mar-15 07:27N 01°16' E 104°14'510.6
2019-Mar-15 07:00N 01°15' E 104°09'510.8
2019-Mar-15 06:30N 01°15' E 104°04'611.2
2019-Mar-15 06:00N 01°14' E 103°58'611.4
2019-Mar-15 05:30N 01°12' E 103°53'612.3
2019-Mar-15 05:01N 01°09' E 103°47'612.8
2019-Mar-15 04:30N 01°05' E 103°43'610.9
2019-Mar-15 04:00N 01°04' E 103°37'510.9
2019-Mar-15 03:30N 01°07' E 103°33'5 9.6
2019-Mar-15 03:00N 01°11' E 103°36'5 9.5
2019-Mar-15 02:30N 01°12' E 103°40'2 3.7
2019-Mar-15 02:00N 01°13' E 103°42'1 2.3
2019-Mar-15 01:28N 01°14' E 103°41'0 0.1
2019-Mar-15 00:58N 01°14' E 103°41'0 0.0
2019-Mar-15 00:28N 01°14' E 103°41'0 0.0
2019-Mar-14 23:58N 01°14' E 103°41'0 0.0
2019-Mar-14 19:19N 01°14' E 103°41'0 0.0
2019-Mar-14 17:13N 01°14' E 103°41'0 0.0
2019-Mar-14 16:43N 01°14' E 103°41'0 0.0
2019-Mar-14 16:25N 01°14' E 103°41'0 0.0
2019-Mar-14 15:55N 01°14' E 103°41'0 0.0
2019-Mar-14 15:01N 01°14' E 103°41'0 0.0
2019-Mar-14 14:43N 01°14' E 103°41'0 0.0
2019-Mar-14 13:58N 01°14' E 103°41'0 0.0
2019-Mar-14 11:37N 01°14' E 103°41'0 0.0
2019-Mar-14 10:43N 01°14' E 103°41'0 0.0
2019-Mar-14 10:25N 01°14' E 103°41'0 0.0
2019-Mar-14 09:49N 01°14' E 103°41'0 0.0
2019-Mar-14 09:13N 01°14' E 103°41'0 0.0
2019-Mar-14 08:46N 01°14' E 103°41'0 0.0
2019-Mar-14 07:49N 01°14' E 103°41'0 0.0
2019-Mar-14 07:25N 01°14' E 103°41'0 0.0
2019-Mar-14 06:55N 01°14' E 103°41'0 0.0
2019-Mar-14 06:16N 01°14' E 103°41'0 0.0
2019-Mar-14 05:52N 01°14' E 103°41'0 0.0
2019-Mar-14 05:19N 01°14' E 103°41'0 0.0
2019-Mar-14 04:37N 01°14' E 103°41'0 0.0
2019-Mar-14 04:19N 01°14' E 103°41'0 0.0
2019-Mar-14 03:52N 01°14' E 103°41'0 0.0
2019-Mar-14 03:25N 01°14' E 103°41'0 0.0
2019-Mar-14 02:43N 01°14' E 103°41'0 0.0
2019-Mar-14 02:07N 01°14' E 103°41'0 0.0
2019-Mar-14 01:49N 01°14' E 103°41'0 0.0
2019-Mar-14 01:25N 01°14' E 103°41'0 0.0
2019-Mar-14 00:55N 01°14' E 103°41'0 0.0
2019-Mar-14 00:19N 01°14' E 103°41'0 0.0
2019-Mar-13 23:55N 01°14' E 103°41'0 0.0
2019-Mar-13 23:30N 01°14' E 103°41'0 0.2
2019-Mar-13 23:00N 01°14' E 103°42'2 4.3
2019-Mar-13 22:30N 01°15' E 103°43'3 6.8
2019-Mar-13 22:00N 01°15' E 103°47'1 1.7
2019-Mar-13 21:29N 01°14' E 103°47'0 0.0
2019-Mar-13 20:59N 01°14' E 103°47'0 0.1
2019-Mar-13 20:29N 01°14' E 103°47'0 0.0
2019-Mar-13 19:59N 01°14' E 103°47'0 0.0
2019-Mar-13 19:29N 01°14' E 103°47'0 0.0
2019-Mar-13 18:59N 01°14' E 103°47'0 0.0
2019-Mar-13 18:29N 01°14' E 103°47'0 0.0
2019-Mar-13 17:59N 01°14' E 103°47'0 0.1
2019-Mar-13 17:29N 01°14' E 103°47'0 0.0
2019-Mar-13 16:56N 01°14' E 103°47'0 0.0
2019-Mar-13 16:29N 01°14' E 103°47'0 0.1
2019-Mar-13 15:59N 01°14' E 103°47'0 0.0
2019-Mar-13 15:26N 01°14' E 103°47'0 0.0
2019-Mar-13 14:56N 01°14' E 103°47'0 0.1
2019-Mar-13 14:29N 01°14' E 103°47'0 0.0
2019-Mar-13 13:59N 01°14' E 103°47'0 0.1
2019-Mar-13 13:29N 01°14' E 103°47'0 0.0
2019-Mar-13 12:59N 01°14' E 103°47'0 0.0
2019-Mar-13 12:29N 01°14' E 103°47'0 0.1
2019-Mar-13 11:59N 01°14' E 103°47'0 0.1
2019-Mar-13 11:26N 01°14' E 103°47'0 0.2
2019-Mar-13 10:56N 01°14' E 103°47'0 0.0
2019-Mar-13 10:29N 01°14' E 103°47'0 0.0
2019-Mar-13 09:59N 01°14' E 103°47'0 0.0
2019-Mar-13 09:29N 01°14' E 103°47'0 0.0
2019-Mar-13 08:59N 01°14' E 103°47'0 0.0
2019-Mar-13 08:29N 01°14' E 103°47'0 0.0
2019-Mar-13 07:59N 01°14' E 103°47'0 0.0
2019-Mar-13 07:29N 01°14' E 103°47'0 0.0
2019-Mar-13 06:59N 01°14' E 103°47'0 0.0
2019-Mar-13 06:29N 01°14' E 103°47'0 0.1
2019-Mar-13 05:59N 01°14' E 103°47'0 0.1
2019-Mar-13 05:29N 01°14' E 103°47'1 2.9
2019-Mar-13 05:00N 01°13' E 103°48'1 1.8
2019-Mar-13 04:28N 01°12' E 103°48'0 0.0
2019-Mar-12 01:31N 01°12' E 103°48'0 0.0
2019-Mar-12 01:27N 01°12' E 103°48'0 0.0
2019-Mar-12 01:00N 01°12' E 103°48'0 0.2
2019-Mar-12 00:30N 01°12' E 103°48'1 2.0
2019-Mar-12 00:00N 01°11' E 103°49'2 4.5
2019-Mar-11 23:30N 01°13' E 103°48'4 7.9
2019-Mar-11 23:00N 01°15' E 103°44'3 5.7
2019-Mar-11 22:30N 01°13' E 103°42'0 0.2
2019-Mar-11 21:56N 01°13' E 103°42'0 0.2
2019-Mar-11 21:29N 01°13' E 103°42'0 0.2
2019-Mar-11 20:59N 01°13' E 103°42'0 0.0
2019-Mar-11 20:29N 01°13' E 103°42'0 0.2
2019-Mar-11 19:59N 01°13' E 103°42'0 0.2
2019-Mar-11 19:29N 01°13' E 103°42'0 0.1
2019-Mar-11 18:59N 01°13' E 103°41'0 0.0
2019-Mar-11 18:29N 01°13' E 103°41'0 0.0
2019-Mar-11 17:59N 01°13' E 103°41'0 0.1
2019-Mar-11 17:26N 01°13' E 103°41'0 0.0
2019-Mar-11 16:56N 01°13' E 103°41'0 0.0
2019-Mar-11 16:29N 01°13' E 103°41'0 0.1
2019-Mar-11 15:54N 01°13' E 103°41'1 2.4
2019-Mar-11 15:30N 01°13' E 103°41'2 4.8
2019-Mar-11 15:00N 01°12' E 103°38'3 5.2
2019-Mar-11 14:30N 01°13' E 103°36'3 5.4
2019-Mar-11 13:59N 01°12' E 103°33'4 7.8
2019-Mar-11 13:30N 01°11' E 103°30'5 9.1
2019-Mar-11 12:58N 01°12' E 103°25'510.1
2019-Mar-11 12:29N 01°15' E 103°21'  

Dump ship's entire track history